AirNav   Air Wisconsin Up To $57,000 Bonus
 
 555 users online  

NH37 Southern NH Medical Center Heliport
Nashua, New Hampshire, USA

GOING TO NASHUA?


FAA INFORMATION EFFECTIVE 26 MARCH 2020

Location

FAA Identifier: NH37
Lat/Long: 42-45-20.0800N 071-27-41.6400W
42-45.334667N 071-27.694000W
42.7555778,-71.4615667
(estimated)
Elevation: 192 ft. / 59 m (estimated)
Variation: 15W (2015)
Time zone: UTC -4 (UTC -5 during Standard Time)
Zip code: 03060

Heliport Operations

Heliport use: Private use, MEDICAL USE.
Activation date: 06/2005
Control tower: no
ARTCC: BOSTON CENTER
FSS: BANGOR FLIGHT SERVICE STATION
NOTAMs facility: FDC (NOTAM-D service not available)
Attendance: UNATNDD
Segmented circle: no

Heliport Communications

WX AWOS-3PT at ASH (2.8 nm NW): 125.1 (603-578-0473)
WX ASOS at MHT (11 nm N): 119.55 (603-621-1766)
WX ASOS at LWM (15 nm E): PHONE 978-687-8017
WX ASOS at FIT (18 nm SW): 135.175 (978-343-9121)
WX ASOS at BED (19 nm SE): 124.6 (781-274-9733)

Nearby radio navigation aids

VOR radial/distance  VOR name  Freq  Var
MHTr226/7.9MANCHESTER VOR/DME114.4015W
LWMr288/16.2LAWRENCE VOR/DME112.5015W
CONr185/28.3CONCORD VOR/DME112.9015W
GDMr078/29.2GARDNER VOR/DME110.6014W
BOSr335/31.7BOSTON VOR/DME112.7016W
PSMr250/34.0PEASE VOR/DME116.5016W
EENr108/36.6KEENE VORTAC109.4014W

 
NDB name  Hdg/Dist  Freq  Var  ID
FITZY171/7.220915WMJ -- .---
ROLLINS241/39.426016WESG . ... --.

Heliport Services

Runway Information

Helipad H1

Dimensions: 45 x 45 ft. / 14 x 14 m
Surface: ROOF/TOP
Operational restrictions: ROOFTOP HELIPAD.
Latitude: 42-45.334667N
Longitude: 071-27.694000W
Elevation: 192.0 ft.
Traffic pattern: leftleft

Heliport Ownership and Management from official FAA records

Ownership: Privately-owned
Owner: SOUTHERN NH MEDICAL CENTER
8 PROSPECT ST
NASHUA, NH 03061
Phone 603-577-2722
Manager: KEVIN DUHAMEL
8 PROSPECT ST
NASHUA, NH 03061
Phone (603) 577-2233
ALTERNATE: MARK HASTINGS

Additional Remarks

FOR CD CTC BOSTON APCH AT 603-594-5551.

Instrument Procedures

There are no published instrument procedures at NH37.

Some nearby airports with instrument procedures:

KASH - Boire Field Airport (3 nm NW)
KMHT - Manchester Airport (11 nm N)
KLWM - Lawrence Municipal Airport (15 nm E)
KFIT - Fitchburg Municipal Airport (18 nm SW)
6B6 - Minute Man Air Field (18 nm S)
KBED - Laurence G Hanscom Field Airport (19 nm SE)
 
Loc | Ops | Rwys | IFR | FBO | Links
Com | Nav | Svcs | Stats | Notes
Area around NH37 (Southern NH Medical Center Heliport)
 
Road maps at: MapQuest Bing Google
 
Aerial photo
No photo
 
Sectional chart

 
Airport distance calculator
Flying to Southern NH Medical Center Heliport? Find the distance to fly.

From to NH37

Sunrise and sunset
Times for 03-Apr-2020
 Local
(UTC-4)
 Zulu
(UTC)
Morning civil twilight05:5509:55
Sunrise06:2410:24
Sunset19:1423:14
Evening civil twilight19:4323:43

Current date and time
Zulu (UTC)  03-Apr-2020 11:57:49
Local (UTC-4)  03-Apr-2020 07:57:49
 
METAR
KASH 
3nm W 
031119Z 33010KT 7SM RA BKN008 BKN017 OVC024 06/06 A2956 RMK AO2 CIG 007V013 PNO $
KMHT 
11nm N 
031053Z 34011KT 4SM RA BR FEW010 OVC021 07/05 A2954 RMK AO2 SLP019 P0012 T00670050
KLWM 
15nm E 
031112Z 36013KT 2 1/2SM RA BR SCT009 OVC014 07/06 A2954 RMK AO2 P0004 T00670056
KFIT 
18nm SW 
030815Z AUTO 33012G20KT 5SM -RA BR OVC027 06/04 A2950 RMK AO2 P0004 T00610039
KBED 
19nm S 
031051Z AUTO 34008KT 7SM -RA BKN009 OVC015 07/06 A2950 RMK AO2 SLP004 P0006 T00670061
TAF
KMHT 
11nm N 
030912Z 0309/0406 34013G21KT 6SM -RA BR SCT008 OVC015 FM031400 02015G32KT 5SM RA BR OVC010 FM031900 03015G28KT 6SM -SHRA BR OVC015 FM040000 01012G20KT P6SM SCT025 OVC050
KBED 
19nm S 
030538Z 0306/0406 33014G22KT 6SM -RA OVC020 FM030800 35015KT 3SM -RA BR OVC015 FM031100 01016G24KT 3SM -RA BR OVC010 FM031400 02021G30KT 3SM -RA BR OVC010 FM032300 03018G25KT 3SM -RA BR OVC010 FM040300 02013KT P6SM VCSH OVC010
NOTAMs
Click for the latest NOTAMs
NOTAMs are issued by the DoD/FAA and will open in a separate window not controlled by AirNav.

 

 
 

Would you like to see your business listed on this page?

 If your business provides an interesting product or service to pilots, flight crews, aircraft, or users of the Southern NH Medical Center Heliport, you should consider listing it here.  To start the listing process, click on the button below
 
Add a business
 

Other Pages about Southern NH Medical Center Heliport

Update a link
 
Copyright © AirNav, LLC. All rights reserved. Privacy Policy  Contact